Time,TemperatureF,DewpointF,PressureIn,WindDirection,WindDirectionDegrees,WindSpeedMPH,WindSpeedGustMPH,Humidity,HourlyPrecipIn,Conditions,Clouds,dailyrainin,SoftwareType,DateUTC
2013-01-20 00:13:00,44.1,33.0,30.20,WSW,238,0.0,-999.0,64,-99.99,,,0.00,weatherlink.com 1.10,2013-01-20 08:13:00,
2013-01-20 00:28:00,43.6,32.0,30.20,WSW,238,0.0,-999.0,64,-99.99,,,0.00,weatherlink.com 1.10,2013-01-20 08:28:00,
2013-01-20 00:43:00,43.2,31.0,30.20,WSW,238,0.0,-999.0,63,-99.99,,,0.00,weatherlink.com 1.10,2013-01-20 08:43:00,
2013-01-20 00:58:00,42.8,30.0,30.20,SW,236,0.0,-999.0,62,-99.99,,,0.00,weatherlink.com 1.10,2013-01-20 08:58:00,
2013-01-20 01:13:00,42.3,30.0,30.20,SW,236,0.0,-999.0,62,-99.99,,,0.00,weatherlink.com 1.10,2013-01-20 09:13:00,
2013-01-20 01:28:00,42.2,30.0,30.20,SW,236,0.0,-999.0,62,-99.99,,,0.00,weatherlink.com 1.10,2013-01-20 09:28:00,
2013-01-20 01:43:00,42.2,30.0,30.20,SW,236,0.0,-999.0,63,-99.99,,,0.00,weatherlink.com 1.10,2013-01-20 09:43:00,
2013-01-20 01:58:00,41.9,31.0,30.20,SW,236,0.0,-999.0,65,-99.99,,,0.00,weatherlink.com 1.10,2013-01-20 09:58:00,
2013-01-20 02:13:00,41.6,31.0,30.21,SW,236,0.0,-999.0,67,-99.99,,,0.00,weatherlink.com 1.10,2013-01-20 10:13:00,
2013-01-20 02:28:00,41.3,31.0,30.20,SW,236,0.0,-999.0,68,-99.99,,,0.00,weatherlink.com 1.10,2013-01-20 10:28:00,
2013-01-20 02:43:00,41.2,31.0,30.20,SW,236,0.0,-999.0,68,-99.99,,,0.00,weatherlink.com 1.10,2013-01-20 10:43:00,
2013-01-20 02:58:00,40.9,31.0,30.20,SW,236,0.0,-999.0,68,-99.99,,,0.00,weatherlink.com 1.10,2013-01-20 10:58:00,
2013-01-20 03:13:00,40.6,32.0,30.21,SW,236,0.0,-999.0,70,-99.99,,,0.00,weatherlink.com 1.10,2013-01-20 11:13:00,
2013-01-20 03:28:00,40.3,32.0,30.20,SW,236,0.0,-999.0,73,-99.99,,,0.00,weatherlink.com 1.10,2013-01-20 11:28:00,
2013-01-20 03:43:00,40.1,32.0,30.20,SW,236,0.0,-999.0,74,-99.99,,,0.00,weatherlink.com 1.10,2013-01-20 11:43:00,
2013-01-20 03:58:00,39.8,32.0,30.20,SW,236,0.0,-999.0,74,-99.99,,,0.00,weatherlink.com 1.10,2013-01-20 11:58:00,
2013-01-20 04:13:00,39.6,32.0,30.19,SW,236,0.0,-999.0,75,-99.99,,,0.00,weatherlink.com 1.10,2013-01-20 12:13:00,
2013-01-20 04:28:00,39.5,33.0,30.19,SW,236,0.0,-999.0,76,-99.99,,,0.00,weatherlink.com 1.10,2013-01-20 12:28:00,
2013-01-20 04:43:00,39.2,33.0,30.19,SW,236,0.0,-999.0,77,-99.99,,,0.00,weatherlink.com 1.10,2013-01-20 12:43:00,
2013-01-20 04:58:00,39.2,34.0,30.19,SW,236,0.0,-999.0,80,-99.99,,,0.00,weatherlink.com 1.10,2013-01-20 12:58:00,
2013-01-20 05:13:00,39.2,34.0,30.18,SW,236,0.0,-999.0,81,-99.99,,,0.00,weatherlink.com 1.10,2013-01-20 13:13:00,
2013-01-20 05:29:00,38.8,34.0,30.18,SW,236,0.0,-999.0,82,-99.99,,,0.00,weatherlink.com 1.10,2013-01-20 13:29:00,
2013-01-20 05:43:00,38.5,33.0,30.18,SW,236,0.0,-999.0,82,-99.99,,,0.00,weatherlink.com 1.10,2013-01-20 13:43:00,
2013-01-20 05:58:00,38.5,34.0,30.18,SW,236,0.0,-999.0,83,-99.99,,,0.00,weatherlink.com 1.10,2013-01-20 13:58:00,
2013-01-20 06:13:00,38.6,34.0,30.18,SW,236,0.0,-999.0,83,-99.99,,,0.00,weatherlink.com 1.10,2013-01-20 14:13:00,
2013-01-20 06:28:00,39.2,34.0,30.18,SW,236,0.0,-999.0,82,-99.99,,,0.00,weatherlink.com 1.10,2013-01-20 14:28:00,
2013-01-20 06:43:00,39.8,34.0,30.18,SW,230,0.0,-999.0,81,-99.99,,,0.00,weatherlink.com 1.10,2013-01-20 14:43:00,
2013-01-20 06:58:00,40.3,35.0,30.18,SW,230,0.0,-999.0,80,-99.99,,,0.00,weatherlink.com 1.10,2013-01-20 14:58:00,
2013-01-20 07:13:00,40.2,35.0,30.18,SW,229,0.0,-999.0,80,-99.99,,,0.00,weatherlink.com 1.10,2013-01-20 15:13:00,
2013-01-20 07:28:00,40.2,35.0,30.19,SW,229,0.0,-999.0,82,-99.99,,,0.00,weatherlink.com 1.10,2013-01-20 15:28:00,
2013-01-20 07:43:00,40.3,36.0,30.18,SW,229,0.0,-999.0,83,-99.99,,,0.00,weatherlink.com 1.10,2013-01-20 15:43:00,
2013-01-20 07:58:00,41.3,37.0,30.19,WSW,242,0.0,-999.0,83,-99.99,,,0.00,weatherlink.com 1.10,2013-01-20 15:58:00,
2013-01-20 08:13:00,42.2,37.0,30.19,SW,227,0.0,-999.0,83,-99.99,,,0.00,weatherlink.com 1.10,2013-01-20 16:13:00,
2013-01-20 08:28:00,43.5,38.0,30.20,SW,236,0.0,-999.0,82,-99.99,,,0.00,weatherlink.com 1.10,2013-01-20 16:28:00,
2013-01-20 08:43:00,45.1,39.0,30.20,WSW,242,0.0,-999.0,80,-99.99,,,0.00,weatherlink.com 1.10,2013-01-20 16:43:00,
2013-01-20 08:58:00,46.7,39.0,30.21,WSW,240,0.0,-999.0,74,-99.99,,,0.00,weatherlink.com 1.10,2013-01-20 16:58:00,
2013-01-20 09:13:00,49.1,34.0,30.20,NNE,32,0.0,-999.0,56,-99.99,,,0.00,weatherlink.com 1.10,2013-01-20 17:13:00,
2013-01-20 09:29:00,54.1,32.0,30.21,SE,134,1.0,-999.0,44,-99.99,,,0.00,weatherlink.com 1.10,2013-01-20 17:29:00,
2013-01-20 09:44:00,55.6,28.0,30.21,SSW,195,3.0,-999.0,35,-99.99,,,0.00,weatherlink.com 1.10,2013-01-20 17:44:00,
2013-01-20 09:59:00,56.0,37.0,30.21,NE,51,3.0,-999.0,49,-99.99,,,0.00,weatherlink.com 1.10,2013-01-20 17:59:00,
2013-01-20 10:13:00,57.5,36.0,30.22,SSE,161,0.0,-999.0,44,-99.99,,,0.00,weatherlink.com 1.10,2013-01-20 18:13:00,
2013-01-20 10:28:00,59.2,26.0,30.21,ENE,75,0.0,-999.0,28,-99.99,,,0.00,weatherlink.com 1.10,2013-01-20 18:28:00,
2013-01-20 10:43:00,61.0,24.0,30.20,WSW,246,3.0,-999.0,24,-99.99,,,0.00,weatherlink.com 1.10,2013-01-20 18:43:00,
2013-01-20 10:58:00,61.8,23.0,30.20,ESE,110,5.0,-999.0,23,-99.99,,,0.00,weatherlink.com 1.10,2013-01-20 18:58:00,
2013-01-20 11:14:00,62.3,24.0,30.20,ENE,72,3.0,-999.0,23,-99.99,,,0.00,weatherlink.com 1.10,2013-01-20 19:14:00,
2013-01-20 11:29:00,63.2,24.0,30.19,West,266,1.0,-999.0,22,-99.99,,,0.00,weatherlink.com 1.10,2013-01-20 19:29:00,
2013-01-20 11:44:00,64.2,25.0,30.18,SE,136,2.0,-999.0,23,-99.99,,,0.00,weatherlink.com 1.10,2013-01-20 19:44:00,
2013-01-20 11:59:00,62.9,26.0,30.18,WSW,253,0.0,-999.0,25,-99.99,,,0.00,weatherlink.com 1.10,2013-01-20 19:59:00,
2013-01-20 12:14:00,64.0,24.0,30.17,East,79,4.0,-999.0,22,-99.99,,,0.00,weatherlink.com 1.10,2013-01-20 20:14:00,
2013-01-20 12:29:00,64.7,24.0,30.16,SE,143,2.0,-999.0,21,-99.99,,,0.00,weatherlink.com 1.10,2013-01-20 20:29:00,
2013-01-20 12:44:00,64.8,25.0,30.15,NE,53,3.0,-999.0,22,-99.99,,,0.00,weatherlink.com 1.10,2013-01-20 20:44:00,
2013-01-20 12:59:00,65.2,25.0,30.14,NE,36,4.0,-999.0,22,-99.99,,,0.00,weatherlink.com 1.10,2013-01-20 20:59:00,
2013-01-20 13:14:00,65.8,27.0,30.14,SE,143,2.0,-999.0,23,-99.99,,,0.00,weatherlink.com 1.10,2013-01-20 21:14:00,
2013-01-20 13:29:00,65.8,26.0,30.14,East,84,9.0,-999.0,22,-99.99,,,0.00,weatherlink.com 1.10,2013-01-20 21:29:00,
2013-01-20 13:45:00,66.0,26.0,30.13,SE,129,4.0,-999.0,22,-99.99,,,0.00,weatherlink.com 1.10,2013-01-20 21:45:00,
2013-01-20 14:00:00,65.5,26.0,30.12,ENE,71,4.0,-999.0,22,-99.99,,,0.00,weatherlink.com 1.10,2013-01-20 22:00:00,
2013-01-20 14:14:00,65.6,27.0,30.12,East,90,4.0,-999.0,23,-99.99,,,0.00,weatherlink.com 1.10,2013-01-20 22:14:00,
2013-01-20 14:29:00,65.8,27.0,30.12,SSW,205,0.0,-999.0,23,-99.99,,,0.00,weatherlink.com 1.10,2013-01-20 22:29:00,
2013-01-20 14:44:00,66.4,27.0,30.12,NE,51,2.0,-999.0,23,-99.99,,,0.00,weatherlink.com 1.10,2013-01-20 22:44:00,
2013-01-20 14:59:00,66.9,28.0,30.13,ESE,114,3.0,-999.0,23,-99.99,,,0.00,weatherlink.com 1.10,2013-01-20 22:59:00,
2013-01-20 15:15:00,66.6,29.0,30.14,SSE,152,1.0,-999.0,24,-99.99,,,0.00,weatherlink.com 1.10,2013-01-20 23:15:00,
2013-01-20 15:30:00,66.4,28.0,30.14,East,88,2.0,-999.0,24,-99.99,,,0.00,weatherlink.com 1.10,2013-01-20 23:30:00,
2013-01-20 15:45:00,66.3,27.0,30.14,SE,130,1.0,-999.0,23,-99.99,,,0.00,weatherlink.com 1.10,2013-01-20 23:45:00,
2013-01-20 16:00:00,65.0,26.0,30.14,SE,143,0.0,-999.0,23,-99.99,,,0.00,weatherlink.com 1.10,2013-01-21 00:00:00,
2013-01-20 16:15:00,64.7,27.0,30.14,SSW,202,0.0,-999.0,24,-99.99,,,0.00,weatherlink.com 1.10,2013-01-21 00:15:00,
2013-01-20 16:30:00,64.3,27.0,30.14,SE,138,0.0,-999.0,24,-99.99,,,0.00,weatherlink.com 1.10,2013-01-21 00:30:00,
2013-01-20 16:45:00,63.4,28.0,30.14,NNE,28,0.0,-999.0,26,-99.99,,,0.00,weatherlink.com 1.10,2013-01-21 00:45:00,
2013-01-20 17:00:00,62.3,28.0,30.13,WSW,256,0.0,-999.0,27,-99.99,,,0.00,weatherlink.com 1.10,2013-01-21 01:00:00,
2013-01-20 17:15:00,60.7,27.0,30.12,SW,221,0.0,-999.0,28,-99.99,,,0.00,weatherlink.com 1.10,2013-01-21 01:15:00,
2013-01-20 17:30:00,60.1,26.0,30.13,SSE,153,1.0,-999.0,27,-99.99,,,0.00,weatherlink.com 1.10,2013-01-21 01:30:00,
2013-01-20 17:45:00,59.3,25.0,30.13,East,80,0.0,-999.0,27,-99.99,,,0.00,weatherlink.com 1.10,2013-01-21 01:45:00,
2013-01-20 18:00:00,58.1,27.0,30.13,NE,53,0.0,-999.0,31,-99.99,,,0.00,weatherlink.com 1.10,2013-01-21 02:00:00,
2013-01-20 18:15:00,56.0,29.0,30.14,NE,53,0.0,-999.0,35,-99.99,,,0.00,weatherlink.com 1.10,2013-01-21 02:15:00,
2013-01-20 18:30:00,54.2,29.0,30.14,NE,53,0.0,-999.0,38,-99.99,,,0.00,weatherlink.com 1.10,2013-01-21 02:30:00,
2013-01-20 18:45:00,53.2,29.0,30.14,NE,53,0.0,-999.0,39,-99.99,,,0.00,weatherlink.com 1.10,2013-01-21 02:45:00,
2013-01-20 19:00:00,52.2,30.0,30.14,NE,53,0.0,-999.0,43,-99.99,,,0.00,weatherlink.com 1.10,2013-01-21 03:00:00,
2013-01-20 19:15:00,51.1,31.0,30.14,NE,53,0.0,-999.0,46,-99.99,,,0.00,weatherlink.com 1.10,2013-01-21 03:15:00,
2013-01-20 19:30:00,50.4,30.0,30.15,NE,53,0.0,-999.0,46,-99.99,,,0.00,weatherlink.com 1.10,2013-01-21 03:30:00,
2013-01-20 19:45:00,49.9,31.0,30.15,NE,53,0.0,-999.0,49,-99.99,,,0.00,weatherlink.com 1.10,2013-01-21 03:45:00,
2013-01-20 20:00:00,49.5,32.0,30.16,NE,53,0.0,-999.0,52,-99.99,,,0.00,weatherlink.com 1.10,2013-01-21 04:00:00,
2013-01-20 20:15:00,48.9,32.0,30.16,NE,53,0.0,-999.0,53,-99.99,,,0.00,weatherlink.com 1.10,2013-01-21 04:15:00,
2013-01-20 20:30:00,48.5,29.0,30.16,NE,53,0.0,-999.0,47,-99.99,,,0.00,weatherlink.com 1.10,2013-01-21 04:30:00,
2013-01-20 20:45:00,48.2,29.0,30.15,NE,53,0.0,-999.0,47,-99.99,,,0.00,weatherlink.com 1.10,2013-01-21 04:45:00,
2013-01-20 21:15:00,47.3,30.0,30.16,NE,53,0.0,-999.0,51,-99.99,,,0.00,weatherlink.com 1.10,2013-01-21 05:15:00,
2013-01-20 21:30:00,47.0,29.0,30.17,NE,53,0.0,-999.0,50,-99.99,,,0.00,weatherlink.com 1.10,2013-01-21 05:30:00,
2013-01-20 21:45:00,46.8,29.0,30.17,NE,53,0.0,-999.0,50,-99.99,,,0.00,weatherlink.com 1.10,2013-01-21 05:45:00,
2013-01-20 22:00:00,46.5,28.0,30.16,NE,53,0.0,-999.0,49,-99.99,,,0.00,weatherlink.com 1.10,2013-01-21 06:00:00,
2013-01-20 22:15:00,46.2,29.0,30.17,NE,53,0.0,-999.0,51,-99.99,,,0.00,weatherlink.com 1.10,2013-01-21 06:15:00,
2013-01-20 22:30:00,45.4,29.0,30.17,NE,53,0.0,-999.0,54,-99.99,,,0.00,weatherlink.com 1.10,2013-01-21 06:30:00,
2013-01-20 22:45:00,44.8,28.0,30.17,NE,53,0.0,-999.0,53,-99.99,,,0.00,weatherlink.com 1.10,2013-01-21 06:45:00,
2013-01-20 23:00:00,44.8,27.0,30.17,NE,53,0.0,-999.0,51,-99.99,,,0.00,weatherlink.com 1.10,2013-01-21 07:00:00,
2013-01-20 23:15:00,44.3,27.0,30.17,NE,53,0.0,-999.0,51,-99.99,,,0.00,weatherlink.com 1.10,2013-01-21 07:15:00,
2013-01-20 23:30:00,44.2,27.0,30.16,NE,53,0.0,-999.0,51,-99.99,,,0.00,weatherlink.com 1.10,2013-01-21 07:30:00,
2013-01-20 23:45:00,43.6,27.0,30.15,NE,53,0.0,-999.0,52,-99.99,,,0.00,weatherlink.com 1.10,2013-01-21 07:45:00,